createdAt,value
2019-06-20T00:00:35.378Z,86.37
2019-06-20T00:03:04.175Z,86.46
2019-06-20T00:05:32.880Z,86.64
2019-06-20T00:08:01.609Z,86.35
2019-06-20T00:10:30.538Z,87.02
2019-06-20T00:13:00.720Z,86.54
2019-06-20T00:15:29.921Z,85.31
2019-06-20T00:17:58.646Z,86.07
2019-06-20T00:20:27.277Z,86.93
2019-06-20T00:22:56.535Z,88.55
2019-06-20T00:25:25.156Z,89.83
2019-06-20T00:27:54.108Z,89.75
2019-06-20T00:30:22.789Z,90.06
2019-06-20T00:32:51.418Z,89.80
2019-06-20T00:35:20.810Z,88.48
2019-06-20T00:37:49.792Z,88.26
2019-06-20T00:40:18.625Z,87.53
2019-06-20T00:42:47.662Z,86.82
2019-06-20T00:45:16.662Z,85.67
2019-06-20T00:47:45.671Z,85.59
2019-06-20T00:50:14.427Z,84.81
2019-06-20T00:52:43.313Z,83.29
2019-06-20T00:55:12.473Z,84.45
2019-06-20T00:57:42.041Z,84.67
2019-06-20T01:00:12.191Z,83.51
2019-06-20T01:02:41.247Z,83.41
2019-06-20T01:05:10.288Z,83.22
2019-06-20T01:07:39.274Z,82.80
2019-06-20T01:10:08.375Z,82.24
2019-06-20T01:12:37.835Z,81.97
2019-06-20T01:15:07.301Z,82.20
2019-06-20T01:17:36.275Z,81.88
2019-06-20T01:20:06.625Z,81.95
2019-06-20T01:22:35.854Z,82.74
2019-06-20T01:25:05.145Z,83.77
2019-06-20T01:27:34.152Z,82.87
2019-06-20T01:30:02.907Z,83.69
2019-06-20T01:32:32.170Z,82.84
2019-06-20T01:35:01.238Z,82.05
2019-06-20T01:37:30.542Z,81.54
2019-06-20T01:39:59.633Z,82.78
2019-06-20T01:42:28.625Z,83.84
2019-06-20T01:44:57.322Z,83.01
2019-06-20T01:47:26.242Z,81.86
2019-06-20T01:49:55.505Z,82.20
2019-06-20T01:52:24.499Z,83.60
2019-06-20T01:54:53.246Z,84.78
2019-06-20T01:57:22.006Z,85.25
2019-06-20T01:59:50.720Z,85.32
2019-06-20T02:02:19.442Z,86.01
2019-06-20T02:04:48.198Z,86.28
2019-06-20T02:07:17.334Z,86.76
2019-06-20T02:09:46.382Z,86.50
2019-06-20T02:12:15.332Z,86.23
2019-06-20T02:14:44.315Z,86.05
2019-06-20T02:17:13.001Z,85.61
2019-06-20T02:19:41.686Z,85.05
2019-06-20T02:22:10.354Z,85.40
2019-06-20T02:24:39.415Z,86.63
2019-06-20T02:27:08.681Z,87.25
2019-06-20T02:29:37.664Z,87.52
2019-06-20T02:32:06.763Z,88.76
2019-06-20T02:34:35.754Z,89.36
2019-06-20T02:37:04.477Z,89.16
2019-06-20T02:39:33.847Z,89.86
2019-06-20T02:42:02.944Z,89.67
2019-06-20T02:44:32.196Z,89.88
2019-06-20T02:47:02.727Z,90.72
2019-06-20T02:49:31.480Z,91.02
2019-06-20T02:52:00.790Z,90.33
2019-06-20T02:54:29.845Z,89.97
2019-06-20T02:56:59.446Z,89.23
2019-06-20T02:59:28.497Z,89.67
2019-06-20T03:01:57.247Z,91.10
2019-06-20T03:04:26.246Z,91.19
2019-06-20T03:06:55.176Z,91.08
2019-06-20T03:09:24.125Z,91.49
2019-06-20T03:11:53.122Z,90.80
2019-06-20T03:14:22.057Z,91.02
2019-06-20T03:16:51.050Z,91.23
2019-06-20T03:19:20.099Z,90.64
2019-06-20T03:21:48.835Z,91.04
2019-06-20T03:24:18.192Z,90.75
2019-06-20T03:26:47.189Z,89.97
2019-06-20T03:29:16.279Z,89.29
2019-06-20T03:31:45.283Z,89.55
2019-06-20T03:34:14.268Z,90.17
2019-06-20T03:36:43.572Z,90.74
2019-06-20T03:39:12.362Z,91.24
2019-06-20T03:41:41.020Z,90.86
2019-06-20T03:44:10.142Z,90.67
2019-06-20T03:46:39.198Z,90.50
2019-06-20T03:49:08.240Z,90.25
2019-06-20T03:51:37.226Z,90.06
2019-06-20T03:54:05.970Z,89.30
2019-06-20T03:56:34.776Z,89.06
2019-06-20T03:59:03.816Z,88.73
2019-06-20T04:01:33.094Z,88.20
2019-06-20T04:04:02.095Z,87.56
2019-06-20T04:06:30.897Z,87.91
2019-06-20T04:08:59.977Z,88.02
2019-06-20T04:11:28.606Z,87.56
2019-06-20T04:13:57.631Z,87.00
2019-06-20T04:16:26.655Z,87.21
2019-06-20T04:18:55.989Z,86.44
2019-06-20T04:21:25.047Z,86.08
2019-06-20T04:23:53.724Z,85.82
2019-06-20T04:26:22.635Z,85.65
2019-06-20T04:28:51.679Z,85.66
2019-06-20T04:31:20.613Z,85.96
2019-06-20T04:33:49.706Z,85.25
2019-06-20T04:36:18.469Z,85.69
2019-06-20T04:38:47.059Z,85.70
2019-06-20T04:41:16.155Z,85.42
2019-06-20T04:43:45.473Z,84.48
2019-06-20T04:46:21.334Z,84.24
2019-06-20T04:48:50.049Z,84.15
2019-06-20T04:51:19.427Z,83.71
2019-06-20T04:53:48.518Z,84.18
2019-06-20T04:56:17.464Z,83.95
2019-06-20T04:58:46.127Z,83.59
2019-06-20T05:01:15.201Z,83.36
2019-06-20T05:03:43.905Z,82.40
2019-06-20T05:06:12.652Z,82.29
2019-06-20T05:08:41.768Z,81.29
2019-06-20T05:11:11.072Z,80.69
2019-06-20T05:13:40.515Z,81.78
2019-06-20T05:16:09.469Z,82.47
2019-06-20T05:18:38.558Z,81.94
2019-06-20T05:21:08.298Z,81.17
2019-06-20T05:23:37.059Z,81.24
2019-06-20T05:26:06.264Z,81.30
2019-06-20T05:28:36.174Z,81.16
2019-06-20T05:31:05.398Z,81.49
2019-06-20T05:33:34.364Z,80.03
2019-06-20T05:36:03.871Z,77.63
2019-06-20T05:38:32.866Z,77.57
2019-06-20T05:41:01.706Z,76.09
2019-06-20T05:43:30.399Z,75.55
2019-06-20T05:46:08.918Z,74.38
2019-06-20T05:48:30.169Z,74.60
2019-06-20T05:50:59.297Z,74.70
2019-06-20T05:53:28.918Z,75.17
2019-06-20T05:55:57.739Z,74.71
2019-06-20T05:58:26.438Z,73.70
2019-06-20T06:00:55.237Z,73.97
2019-06-20T06:03:24.341Z,74.30
2019-06-20T06:05:54.602Z,73.27
2019-06-20T06:08:23.760Z,73.04
2019-06-20T06:10:52.544Z,71.80
2019-06-20T06:13:21.229Z,71.43
2019-06-20T06:15:49.965Z,72.38
2019-06-20T06:18:18.746Z,72.56
2019-06-20T06:20:47.702Z,70.51
2019-06-20T06:23:16.371Z,71.17
2019-06-20T06:25:45.485Z,70.28
2019-06-20T06:28:14.268Z,70.95
2019-06-20T06:30:43.433Z,70.96
2019-06-20T06:33:12.214Z,71.12
2019-06-20T06:35:41.809Z,71.11
2019-06-20T06:38:11.205Z,72.28
2019-06-20T06:40:40.787Z,70.95
2019-06-20T06:43:09.788Z,70.96
2019-06-20T06:45:38.589Z,70.63
2019-06-20T06:48:07.570Z,70.05
2019-06-20T06:50:36.280Z,72.01
2019-06-20T06:53:05.353Z,71.15
2019-06-20T06:55:34.450Z,70.20
2019-06-20T06:58:03.084Z,70.21
2019-06-20T07:00:31.865Z,70.88
2019-06-20T07:03:00.547Z,70.53
2019-06-20T07:05:29.499Z,70.30
2019-06-20T07:07:58.156Z,70.28
2019-06-20T07:10:26.902Z,70.75
2019-06-20T07:12:55.763Z,70.79
2019-06-20T07:15:24.713Z,71.62
2019-06-20T07:17:53.394Z,71.79
2019-06-20T07:20:23.255Z,72.08
2019-06-20T07:22:52.655Z,72.16
2019-06-20T07:25:22.263Z,71.91
2019-06-20T07:27:51.325Z,72.00
2019-06-20T07:30:20.867Z,71.53
2019-06-20T07:32:49.655Z,70.40
2019-06-20T07:35:18.776Z,70.32
2019-06-20T07:37:47.752Z,69.21
2019-06-20T07:40:18.402Z,69.36
2019-06-20T07:42:47.678Z,69.52
2019-06-20T07:45:18.586Z,68.50
2019-06-20T07:47:47.917Z,68.85
2019-06-20T07:50:16.675Z,70.08
2019-06-20T07:53:00.929Z,69.54
2019-06-20T07:55:16.128Z,69.96
2019-06-20T07:57:45.280Z,69.78
2019-06-20T08:00:14.276Z,69.86
2019-06-20T08:02:43.315Z,69.01
2019-06-20T08:05:13.332Z,68.16
2019-06-20T08:07:42.641Z,65.81
2019-06-20T08:10:12.680Z,65.67
2019-06-20T08:12:41.849Z,64.77
2019-06-20T08:15:15.474Z,65.03
2019-06-20T08:17:42.280Z,66.96
2019-06-20T08:20:11.559Z,65.75
2019-06-20T08:22:40.693Z,66.49
2019-06-20T08:25:09.966Z,65.64
2019-06-20T08:27:51.994Z,65.40
2019-06-20T08:30:29.624Z,64.32
2019-06-20T08:33:01.310Z,64.30
2019-06-20T08:35:30.776Z,64.47
2019-06-20T08:38:01.286Z,65.61
2019-06-20T08:40:32.321Z,65.35
2019-06-20T08:43:02.154Z,64.60
2019-06-20T08:45:32.474Z,65.21
2019-06-20T08:48:02.665Z,63.76
2019-06-20T08:50:32.317Z,62.69
2019-06-20T08:53:01.941Z,63.02
2019-06-20T08:55:31.402Z,62.48
2019-06-20T08:58:01.640Z,62.09
2019-06-20T09:00:31.659Z,62.14
2019-06-20T09:03:00.642Z,62.55
2019-06-20T09:05:30.890Z,63.53
2019-06-20T09:10:40.723Z,62.91
2019-06-20T09:13:11.238Z,64.04
2019-06-20T09:15:40.059Z,63.92
2019-06-20T09:18:09.391Z,64.78
2019-06-20T09:20:38.266Z,65.37
2019-06-20T09:23:07.053Z,64.88
2019-06-20T09:25:36.543Z,65.20
2019-06-20T09:28:06.526Z,65.77
2019-06-20T09:30:36.495Z,65.94
2019-06-20T09:33:06.078Z,66.59
2019-06-20T09:35:35.298Z,65.68
2019-06-20T09:38:04.578Z,66.27
2019-06-20T09:40:33.676Z,65.90
2019-06-20T09:43:03.006Z,65.99
2019-06-20T09:45:32.171Z,66.59
2019-06-20T09:48:02.536Z,65.47
2019-06-20T09:50:31.534Z,65.24
2019-06-20T09:53:00.980Z,65.01
2019-06-20T09:55:29.840Z,63.49
2019-06-20T09:57:58.915Z,62.89
2019-06-20T10:00:28.605Z,61.79
2019-06-20T10:02:57.874Z,61.89
2019-06-20T10:05:27.130Z,62.37
2019-06-20T10:07:56.719Z,62.58
2019-06-20T10:10:29.788Z,64.20
2019-06-20T10:12:58.883Z,63.55
2019-06-20T10:15:28.798Z,62.87
2019-06-20T10:17:58.027Z,63.04
2019-06-20T10:20:27.911Z,63.10
2019-06-20T10:22:57.498Z,63.79
2019-06-20T10:25:26.736Z,64.24
2019-06-20T10:27:55.538Z,64.42
2019-06-20T10:30:25.626Z,66.25
2019-06-20T10:32:54.724Z,66.78
2019-06-20T10:35:23.547Z,64.37
2019-06-20T10:37:54.761Z,65.21
2019-06-20T10:40:25.813Z,63.89
2019-06-20T10:42:54.636Z,63.08
2019-06-20T10:45:25.343Z,62.55
2019-06-20T10:47:54.531Z,61.95
2019-06-20T10:50:24.508Z,58.89
2019-06-20T10:52:53.849Z,59.55
2019-06-20T10:55:22.857Z,58.12
2019-06-20T10:57:52.126Z,57.70
2019-06-20T11:00:30.893Z,56.67
2019-06-20T11:02:53.682Z,57.60
2019-06-20T11:05:23.013Z,59.28
2019-06-20T11:07:51.928Z,60.19
2019-06-20T11:10:21.514Z,61.06
2019-06-20T11:12:55.826Z,60.79
2019-06-20T11:15:22.727Z,60.87
2019-06-20T11:17:51.406Z,59.90
2019-06-20T11:20:20.766Z,60.57
2019-06-20T11:22:49.957Z,59.60
2019-06-20T11:25:20.494Z,60.72
2019-06-20T11:27:49.225Z,62.08
2019-06-20T11:30:18.451Z,63.82
2019-06-20T11:32:48.725Z,66.07
2019-06-20T11:35:18.116Z,64.55
2019-06-20T11:37:47.335Z,61.92
2019-06-20T11:40:16.770Z,61.34
2019-06-20T11:42:46.990Z,60.81
2019-06-20T11:45:16.315Z,59.56
2019-06-20T11:47:45.092Z,58.89
2019-06-20T11:50:14.322Z,58.45
2019-06-20T11:52:45.634Z,59.26
2019-06-20T11:55:15.572Z,60.51
2019-06-20T11:57:44.568Z,60.35
2019-06-20T12:00:13.633Z,57.16
2019-06-20T12:02:44.061Z,55.34
2019-06-20T12:05:14.265Z,55.20
2019-06-20T12:07:45.336Z,55.00
2019-06-20T12:10:14.466Z,55.88
2019-06-20T12:12:44.720Z,57.02
2019-06-20T12:15:13.904Z,58.31
2019-06-20T12:17:43.788Z,58.13
2019-06-20T12:20:14.339Z,58.31
2019-06-20T12:22:44.919Z,57.64
2019-06-20T12:25:19.015Z,56.89
2019-06-20T12:27:49.602Z,57.76
2019-06-20T12:30:19.525Z,56.09
2019-06-20T12:32:49.343Z,56.08
2019-06-20T12:35:19.026Z,55.96
2019-06-20T12:37:49.806Z,57.50
2019-06-20T12:40:19.233Z,58.27
2019-06-20T12:42:49.289Z,56.89
2019-06-20T12:45:19.042Z,58.40
2019-06-20T12:47:48.010Z,56.47
2019-06-20T12:50:17.824Z,55.48
2019-06-20T12:52:47.645Z,53.12
2019-06-20T12:55:17.247Z,53.10
2019-06-20T12:57:46.583Z,52.45
2019-06-20T13:00:18.394Z,54.10
2019-06-20T13:02:47.556Z,55.19
2019-06-20T13:05:17.524Z,55.50
2019-06-20T13:07:47.237Z,55.09
2019-06-20T13:10:17.658Z,54.86
2019-06-20T13:12:46.538Z,53.05
2019-06-20T13:15:15.615Z,53.91
2019-06-20T13:17:45.053Z,52.05
2019-06-20T13:20:14.968Z,51.90
2019-06-20T13:22:44.808Z,50.60
2019-06-20T13:25:14.029Z,50.70
2019-06-20T13:27:43.541Z,51.20
2019-06-20T13:30:14.130Z,51.45
2019-06-20T13:32:44.982Z,53.54
2019-06-20T13:35:14.456Z,52.97
2019-06-20T13:37:43.864Z,53.60
2019-06-20T13:40:14.559Z,52.35
2019-06-20T13:42:44.135Z,54.38
2019-06-20T13:45:24.369Z,55.80
2019-06-20T13:47:53.560Z,56.56
2019-06-20T13:50:23.389Z,57.47
2019-06-20T13:52:52.279Z,58.74
2019-06-20T13:55:21.305Z,61.22
2019-06-20T13:57:50.599Z,62.57
2019-06-20T14:00:21.010Z,65.02
2019-06-20T14:02:51.541Z,66.58
2019-06-20T14:05:20.908Z,66.36
2019-06-20T14:07:53.494Z,65.87
2019-06-20T14:10:21.324Z,65.41
2019-06-20T14:12:49.989Z,64.63
2019-06-20T14:15:19.225Z,64.09
2019-06-20T14:17:49.653Z,62.68
2019-06-20T14:20:18.946Z,61.10
2019-06-20T14:22:49.407Z,58.88
2019-06-20T14:25:19.873Z,56.69
2019-06-20T14:27:49.180Z,57.87
2019-06-20T14:30:18.458Z,57.54
2019-06-20T14:32:47.284Z,57.44
2019-06-20T14:35:17.646Z,60.27
2019-06-20T14:37:47.829Z,57.27
2019-06-20T14:40:17.787Z,59.22
2019-06-20T14:42:47.928Z,58.70
2019-06-20T14:45:19.361Z,59.89
2019-06-20T14:47:48.463Z,62.01
2019-06-20T14:50:17.728Z,61.19
2019-06-20T14:52:48.557Z,59.43
2019-06-20T14:55:17.302Z,58.99
2019-06-20T14:57:46.985Z,59.35
2019-06-20T15:00:16.908Z,58.95
2019-06-20T15:02:47.656Z,58.71
2019-06-20T15:05:18.146Z,56.45
2019-06-20T15:07:49.453Z,55.25
2019-06-20T15:10:18.515Z,53.29
2019-06-20T15:12:49.857Z,53.29
2019-06-20T15:15:19.015Z,53.02
2019-06-20T15:17:51.416Z,53.13
2019-06-20T15:20:19.308Z,52.11
2019-06-20T15:22:49.251Z,50.23
2019-06-20T15:25:19.338Z,50.63
2019-06-20T15:27:50.267Z,50.71
2019-06-20T15:30:21.850Z,52.19
2019-06-20T15:33:01.852Z,51.66
2019-06-20T15:35:21.285Z,52.88
2019-06-20T15:37:51.504Z,57.28
2019-06-20T15:40:20.882Z,55.54
2019-06-20T15:42:51.554Z,52.72
2019-06-20T15:45:21.730Z,56.26
2019-06-20T15:47:50.808Z,54.33
2019-06-20T15:50:19.605Z,54.44
2019-06-20T15:52:48.713Z,52.72
2019-06-20T15:55:19.911Z,52.50
2019-06-20T15:57:49.225Z,52.67
2019-06-20T16:00:18.582Z,51.49
2019-06-20T16:02:49.864Z,52.65
2019-06-20T16:05:19.215Z,52.34
2019-06-20T16:07:48.624Z,52.10
2019-06-20T16:10:17.922Z,52.53
2019-06-20T16:12:46.713Z,50.46
2019-06-20T16:15:20.838Z,50.19
2019-06-20T16:17:49.597Z,49.05
2019-06-20T16:20:18.764Z,50.18
2019-06-20T16:22:47.618Z,50.27
2019-06-20T16:25:17.202Z,50.56
2019-06-20T16:27:46.319Z,50.46
2019-06-20T16:30:15.282Z,51.22
2019-06-20T16:32:44.407Z,51.41
2019-06-20T16:35:13.765Z,51.07
2019-06-20T16:37:42.893Z,50.86
2019-06-20T16:40:12.206Z,50.45
2019-06-20T16:42:41.253Z,51.50
2019-06-20T16:45:11.669Z,50.83
2019-06-20T16:47:40.667Z,51.30
2019-06-20T16:50:09.728Z,51.40
2019-06-20T16:52:38.913Z,53.46
2019-06-20T16:55:09.342Z,55.04
2019-06-20T16:57:38.431Z,54.00
2019-06-20T17:00:07.734Z,53.47
2019-06-20T17:02:36.834Z,53.80
2019-06-20T17:05:06.190Z,52.63
2019-06-20T17:07:34.945Z,51.96
2019-06-20T17:10:03.748Z,54.19
2019-06-20T17:12:32.474Z,52.95
2019-06-20T17:15:01.468Z,55.04
2019-06-20T17:17:30.228Z,54.88
2019-06-20T17:19:59.374Z,55.20
2019-06-20T17:22:28.780Z,55.09
2019-06-20T17:24:57.696Z,55.18
2019-06-20T17:27:26.669Z,57.49
2019-06-20T17:29:56.085Z,57.56
2019-06-20T17:32:24.744Z,58.61
2019-06-20T17:34:53.407Z,58.19
2019-06-20T17:37:22.177Z,58.32
2019-06-20T17:39:51.144Z,57.94
2019-06-20T17:42:20.098Z,58.97
2019-06-20T17:44:48.908Z,59.58
2019-06-20T17:47:17.907Z,60.85
2019-06-20T17:49:46.994Z,60.82
2019-06-20T17:52:15.985Z,60.38
2019-06-20T17:54:44.783Z,59.68
2019-06-20T17:57:13.564Z,58.64
2019-06-20T17:59:42.975Z,59.55
2019-06-20T18:02:11.858Z,60.25
2019-06-20T18:04:40.517Z,60.41
2019-06-20T18:07:09.188Z,60.49
2019-06-20T18:09:38.259Z,60.10
2019-06-20T18:12:07.251Z,60.03
2019-06-20T18:14:36.110Z,60.68
2019-06-20T18:17:04.877Z,60.26
2019-06-20T18:19:34.212Z,62.52
2019-06-20T18:22:02.982Z,62.92
2019-06-20T18:24:31.681Z,63.71
2019-06-20T18:27:00.472Z,62.79
2019-06-20T18:29:29.353Z,63.37
2019-06-20T18:31:58.482Z,64.54
2019-06-20T18:34:30.281Z,66.01
2019-06-20T18:36:58.419Z,66.60
2019-06-20T18:39:27.814Z,67.51
2019-06-20T18:41:57.208Z,67.56
2019-06-20T18:44:26.398Z,67.38
2019-06-20T18:46:55.142Z,68.77
2019-06-20T18:49:24.186Z,68.40
2019-06-20T18:51:52.964Z,68.76
2019-06-20T18:54:21.748Z,69.65
2019-06-20T18:56:50.971Z,70.28
2019-06-20T18:59:19.836Z,70.36
2019-06-20T19:01:48.608Z,72.51
2019-06-20T19:04:17.376Z,73.04
2019-06-20T19:06:46.414Z,73.54
2019-06-20T19:09:15.858Z,74.11
2019-06-20T19:11:45.118Z,74.56
2019-06-20T19:14:14.426Z,74.86
2019-06-20T19:16:43.141Z,74.55
2019-06-20T19:19:12.220Z,74.61
2019-06-20T19:21:41.321Z,74.85
2019-06-20T19:24:10.525Z,75.07
2019-06-20T19:26:39.240Z,75.45
2019-06-20T19:29:08.023Z,75.82
2019-06-20T19:31:36.667Z,76.30
2019-06-20T19:34:05.762Z,76.36
2019-06-20T19:36:34.863Z,76.60
2019-06-20T19:39:05.898Z,76.92
2019-06-20T19:41:34.689Z,77.26
2019-06-20T19:44:03.377Z,77.47
2019-06-20T19:46:32.472Z,77.76
2019-06-20T19:49:01.246Z,78.04
2019-06-20T19:51:30.031Z,78.01
2019-06-20T19:53:59.195Z,78.37
2019-06-20T19:56:28.333Z,78.69
2019-06-20T19:58:57.137Z,78.89
2019-06-20T20:01:26.233Z,78.30
2019-06-20T20:03:55.073Z,78.83
2019-06-20T20:06:24.113Z,78.92
2019-06-20T20:08:53.108Z,79.77
2019-06-20T20:11:21.846Z,80.28
2019-06-20T20:13:50.902Z,80.52
2019-06-20T20:16:20.088Z,80.01
2019-06-20T20:18:49.429Z,80.09
2019-06-20T20:21:18.163Z,80.71
2019-06-20T20:23:47.697Z,79.65
2019-06-20T20:26:16.796Z,79.58
2019-06-20T20:28:45.900Z,80.75
2019-06-20T20:31:14.868Z,81.28
2019-06-20T20:33:43.655Z,81.50
2019-06-20T20:36:24.515Z,80.80
2019-06-20T20:38:43.289Z,80.42
2019-06-20T20:41:12.053Z,81.37
2019-06-20T20:43:41.189Z,81.48
2019-06-20T20:46:10.010Z,81.97
2019-06-20T20:48:38.699Z,82.37
2019-06-20T20:51:07.681Z,82.65
2019-06-20T20:53:36.742Z,82.84
2019-06-20T20:56:05.841Z,82.32
2019-06-20T20:58:34.552Z,82.70
2019-06-20T21:01:10.923Z,83.90
2019-06-20T21:03:40.077Z,84.68
2019-06-20T21:06:09.379Z,84.91
2019-06-20T21:08:38.478Z,85.15
2019-06-20T21:11:07.573Z,84.95
2019-06-20T21:13:36.475Z,85.37
2019-06-20T21:16:05.268Z,84.97
2019-06-20T21:18:34.356Z,85.58
2019-06-20T21:21:03.153Z,86.24
2019-06-20T21:23:32.139Z,86.41
2019-06-20T21:26:00.801Z,86.76
2019-06-20T21:28:29.767Z,86.78
2019-06-20T21:30:58.516Z,87.04
2019-06-20T21:33:27.504Z,86.65
2019-06-20T21:36:07.890Z,86.87
2019-06-20T21:38:27.107Z,86.54
2019-06-20T21:40:55.738Z,86.19
2019-06-20T21:43:24.413Z,86.48
2019-06-20T21:45:53.709Z,86.59
2019-06-20T21:48:22.686Z,85.40
2019-06-20T21:50:51.518Z,87.06
2019-06-20T21:53:41.224Z,87.36
2019-06-20T21:56:10.666Z,87.63
2019-06-20T21:58:40.063Z,88.12
2019-06-20T22:01:09.676Z,88.29
2019-06-20T22:03:38.782Z,88.26
2019-06-20T22:06:22.691Z,87.89
2019-06-20T22:08:38.564Z,87.47
2019-06-20T22:11:07.619Z,86.98
2019-06-20T22:13:36.589Z,87.26
2019-06-20T22:16:05.501Z,87.61
2019-06-20T22:18:34.475Z,86.97
2019-06-20T22:21:03.222Z,87.31
2019-06-20T22:23:32.008Z,87.55
2019-06-20T22:26:01.144Z,88.11
2019-06-20T22:28:29.958Z,88.19
2019-06-20T22:30:58.934Z,88.57
2019-06-20T22:33:28.247Z,88.46
2019-06-20T22:35:57.014Z,88.71
2019-06-20T22:38:25.827Z,88.14
2019-06-20T22:40:54.460Z,88.62
2019-06-20T22:43:23.488Z,88.19
2019-06-20T22:45:52.304Z,88.35
2019-06-20T22:48:20.976Z,89.08
2019-06-20T22:50:49.808Z,89.38
2019-06-20T22:53:18.644Z,89.65
2019-06-20T22:55:47.637Z,90.01
2019-06-20T22:58:16.732Z,89.60
2019-06-20T23:00:45.448Z,89.63
2019-06-20T23:03:14.430Z,89.86
2019-06-20T23:05:43.509Z,89.79
2019-06-20T23:08:12.912Z,90.24
2019-06-20T23:10:41.719Z,90.43
2019-06-20T23:13:10.511Z,90.40
2019-06-20T23:15:39.371Z,90.08
2019-06-20T23:18:08.062Z,89.29
2019-06-20T23:20:37.372Z,89.04
2019-06-20T23:23:06.079Z,89.18
2019-06-20T23:25:36.121Z,89.77
2019-06-20T23:28:05.272Z,90.40
2019-06-20T23:30:34.063Z,89.93
2019-06-20T23:33:02.676Z,89.41
2019-06-20T23:35:31.647Z,89.44
2019-06-20T23:38:00.735Z,87.88
2019-06-20T23:40:29.825Z,88.03
2019-06-20T23:42:59.028Z,88.30
2019-06-20T23:45:28.025Z,89.05
2019-06-20T23:47:56.837Z,89.15
2019-06-20T23:50:26.114Z,88.19
2019-06-20T23:53:02.902Z,88.68
2019-06-20T23:55:32.394Z,89.45
2019-06-20T23:58:01.806Z,89.97
